Time;durP1;ratioP1;P1;durP2;ratioP2;P2;SDS_P1;SDS_P2;PMS_P1;PMS_P2;Temp;Humidity;BMP_temperature;BMP_pressure;BME280_temperature;BME280_humidity;BME280_pressure;Samples;Min_cycle;Max_cycle;Signal;HPM_P1;HPM_P2
2022/03/15 00:01:05;;;;;;;19.97;15.03;;;;;;;6.52;77.24;101566.94;5102593;28;20484;-70
2022/03/15 00:03:32;;;;;;;19.20;14.50;;;;;;;6.40;76.65;101565.78;5103370;28;20459;-69
2022/03/15 00:06:00;;;;;;;18.87;14.90;;;;;;;6.43;75.89;101566.59;5103602;28;20435;-70
2022/03/15 00:08:26;;;;;;;18.80;13.67;;;;;;;6.30;75.44;101575.22;5102284;28;20977;-70
2022/03/15 00:10:58;;;;;;;21.53;15.17;;;;;;;6.13;75.97;101570.75;5102421;28;20447;-69
2022/03/15 00:13:28;;;;;;;20.57;13.83;;;;;;;6.14;76.65;101576.91;5103026;28;20917;-70
2022/03/15 00:15:57;;;;;;;19.00;14.03;;;;;;;6.07;76.56;101576.38;5102906;28;20460;-70
2022/03/15 00:18:24;;;;;;;24.20;16.30;;;;;;;6.05;76.41;101575.59;5102260;28;20514;-70
2022/03/15 00:20:51;;;;;;;22.20;15.70;;;;;;;6.05;76.88;101588.03;5102541;28;20468;-70
2022/03/15 00:23:17;;;;;;;20.27;15.07;;;;;;;6.06;77.30;101584.41;5102584;28;21029;-70
2022/03/15 00:25:44;;;;;;;21.87;16.40;;;;;;;5.96;77.30;101586.69;5101588;28;21158;-70
2022/03/15 00:28:11;;;;;;;19.70;14.73;;;;;;;5.91;77.17;101583.38;5102521;28;20463;-70
2022/03/15 00:30:38;;;;;;;21.27;15.80;;;;;;;5.97;77.11;101583.09;5102660;28;20477;-70
2022/03/15 00:33:08;;;;;;;20.77;16.90;;;;;;;6.00;77.08;101581.13;5102189;28;20436;-70
2022/03/15 00:35:35;;;;;;;23.50;17.77;;;;;;;6.01;77.65;101577.56;5102435;28;20455;-70
2022/03/15 00:38:01;;;;;;;24.93;16.70;;;;;;;6.01;78.27;101582.03;5102020;28;20835;-69
2022/03/15 00:40:28;;;;;;;24.50;19.30;;;;;;;6.02;79.14;101578.41;5101456;28;20484;-69
2022/03/15 00:42:55;;;;;;;29.43;18.00;;;;;;;6.10;79.01;101583.34;5102356;28;20538;-68
2022/03/15 00:45:23;;;;;;;24.87;16.20;;;;;;;6.12;79.16;101584.13;5102202;28;20466;-69
2022/03/15 00:47:50;;;;;;;27.73;18.43;;;;;;;6.10;79.11;101580.69;5101600;28;20882;-69
2022/03/15 00:50:19;;;;;;;23.43;16.80;;;;;;;6.11;79.12;101582.38;5102469;28;20463;-69
2022/03/15 00:52:45;;;;;;;24.10;16.70;;;;;;;6.10;79.04;101580.69;5101881;28;20447;-70
2022/03/15 00:55:12;;;;;;;26.97;17.10;;;;;;;6.07;78.59;101576.38;5101615;28;21139;-69
2022/03/15 00:57:39;;;;;;;22.57;16.47;;;;;;;6.08;78.37;101577.25;5101689;28;20482;-68
2022/03/15 01:00:07;;;;;;;18.60;14.60;;;;;;;6.02;77.86;101575.75;5101871;28;20428;-69
2022/03/15 01:02:34;;;;;;;22.20;16.27;;;;;;;5.89;77.20;101588.78;5101489;28;20491;-69
2022/03/15 01:05:01;;;;;;;21.60;15.97;;;;;;;5.80;77.14;101583.94;5102232;28;20803;-69
2022/03/15 01:07:29;;;;;;;19.70;14.63;;;;;;;5.74;77.09;101585.06;5101464;28;20451;-69
2022/03/15 01:09:55;;;;;;;24.90;17.93;;;;;;;5.55;77.98;101579.81;5102557;28;20470;-66
2022/03/15 01:12:22;;;;;;;24.70;16.50;;;;;;;5.44;78.83;101580.34;5101003;28;20458;-65
2022/03/15 01:14:49;;;;;;;23.20;16.10;;;;;;;5.44;79.61;101580.34;5102252;28;20497;-66
2022/03/15 01:17:16;;;;;;;24.73;16.87;;;;;;;5.54;79.12;101586.09;5101118;28;20451;-66
2022/03/15 01:19:42;;;;;;;25.23;16.97;;;;;;;5.68;80.07;101580.09;5101366;28;20439;-66
2022/03/15 01:22:10;;;;;;;27.57;20.30;;;;;;;5.75;80.38;101576.19;5101494;28;20543;-66
2022/03/15 01:24:38;;;;;;;27.10;20.03;;;;;;;5.81;80.39;101583.81;5102020;28;20443;-66
2022/03/15 01:27:05;;;;;;;27.20;19.57;;;;;;;5.89;80.27;101579.97;5100744;28;20463;-66
2022/03/15 01:29:31;;;;;;;33.17;20.10;;;;;;;5.95;80.60;101576.97;5101491;28;20462;-65
2022/03/15 01:31:59;;;;;;;31.63;20.97;;;;;;;6.00;80.98;101570.50;5101576;28;20450;-66
2022/03/15 01:34:27;;;;;;;35.23;21.93;;;;;;;6.06;81.15;101564.06;5101365;28;20439;-66
2022/03/15 01:36:53;;;;;;;29.90;20.03;;;;;;;5.94;80.61;101556.69;5101096;28;20688;-65
2022/03/15 01:39:20;;;;;;;27.30;19.37;;;;;;;5.90;81.19;101548.00;5101553;28;20463;-66
2022/03/15 01:41:48;;;;;;;28.17;19.00;;;;;;;5.76;80.83;101554.00;5100910;28;20536;-66
2022/03/15 01:44:17;;;;;;;28.50;17.80;;;;;;;5.73;80.22;101561.28;5101732;28;20507;-65
2022/03/15 01:46:44;;;;;;;26.37;18.90;;;;;;;5.73;80.11;101558.63;5100701;28;20913;-65
2022/03/15 01:49:11;;;;;;;31.67;20.40;;;;;;;5.68;80.51;101556.22;5100185;28;20474;-65
2022/03/15 01:51:40;;;;;;;23.53;16.63;;;;;;;5.61;79.38;101560.13;5101836;28;20434;-65
2022/03/15 01:54:08;;;;;;;24.70;17.87;;;;;;;5.54;79.16;101561.31;5100978;28;20570;-65
2022/03/15 01:56:35;;;;;;;26.93;19.93;;;;;;;5.40;80.62;101557.59;5100583;28;20486;-65
2022/03/15 01:59:04;;;;;;;27.20;16.73;;;;;;;5.44;81.05;101556.47;5101253;28;20835;-66
2022/03/15 02:01:31;;;;;;;28.30;18.90;;;;;;;5.27;80.22;101549.34;5101221;28;20435;-65
2022/03/15 02:03:58;;;;;;;25.53;18.37;;;;;;;5.28;80.33;101556.38;5101590;28;20467;-65
2022/03/15 02:06:24;;;;;;;29.60;19.60;;;;;;;5.03;82.11;101548.72;5101280;28;20875;-65
2022/03/15 02:08:51;;;;;;;24.40;17.73;;;;;;;5.00;82.70;101535.66;5100788;28;20474;-65
2022/03/15 02:11:18;;;;;;;33.63;18.23;;;;;;;5.14;82.95;101540.28;5101028;28;20968;-65
2022/03/15 02:13:46;;;;;;;28.77;18.67;;;;;;;5.21;82.85;101535.56;5101172;28;20435;-65
2022/03/15 02:16:16;;;;;;;31.47;17.90;;;;;;;5.25;82.57;101545.91;5104768;28;20450;-65
2022/03/15 02:18:43;;;;;;;26.57;18.03;;;;;;;5.19;82.58;101546.22;5104467;28;20451;-65
2022/03/15 02:21:11;;;;;;;25.60;16.83;;;;;;;5.22;82.67;101547.84;5105976;28;20508;-65
2022/03/15 02:23:37;;;;;;;31.47;18.47;;;;;;;5.18;82.75;101536.53;5105039;28;20470;-65
2022/03/15 02:26:04;;;;;;;25.13;18.20;;;;;;;5.18;82.61;101536.53;5104831;28;20451;-65
2022/03/15 02:28:31;;;;;;;29.03;18.43;;;;;;;5.22;82.43;101530.16;5104843;28;20496;-65
2022/03/15 02:30:57;;;;;;;29.33;18.37;;;;;;;5.23;82.23;101531.03;5104879;28;20439;-65
2022/03/15 02:33:24;;;;;;;29.80;19.17;;;;;;;5.26;82.54;101525.59;5104877;28;20470;-64
2022/03/15 02:35:51;;;;;;;25.17;17.90;;;;;;;5.26;82.49;101529.09;5104531;28;20483;-65
2022/03/15 02:38:19;;;;;;;33.93;20.37;;;;;;;5.20;82.46;101525.88;5104776;28;20463;-65
2022/03/15 02:40:45;;;;;;;26.73;18.50;;;;;;;5.19;82.84;101518.84;5104423;28;20458;-65
2022/03/15 02:43:12;;;;;;;26.40;19.40;;;;;;;5.23;82.49;101515.13;5104363;28;20481;-65
2022/03/15 02:45:39;;;;;;;32.00;18.13;;;;;;;5.18;82.74;101517.13;5104897;28;20454;-65
2022/03/15 02:48:06;;;;;;;30.77;18.23;;;;;;;5.26;82.42;101520.28;5103981;28;20479;-64
2022/03/15 02:50:32;;;;;;;25.97;17.17;;;;;;;5.17;82.37;101518.06;5105360;28;20431;-64
2022/03/15 02:52:59;;;;;;;30.07;19.13;;;;;;;5.19;82.35;101502.94;5104391;28;20463;-64
2022/03/15 02:55:27;;;;;;;29.90;19.40;;;;;;;5.11;82.57;101507.75;5104503;28;20434;-65
2022/03/15 02:57:55;;;;;;;26.93;18.30;;;;;;;5.13;82.62;101501.44;5104049;28;20662;-65
2022/03/15 03:00:22;;;;;;;29.33;18.67;;;;;;;4.97;82.89;101503.97;5104584;28;20447;-65
2022/03/15 03:02:48;;;;;;;26.60;18.10;;;;;;;5.05;82.51;101506.25;5103843;28;20513;-65
2022/03/15 03:05:15;;;;;;;34.00;19.80;;;;;;;5.17;82.36;101504.81;5104556;28;20439;-64
2022/03/15 03:07:42;;;;;;;29.20;18.40;;;;;;;5.11;82.35;101503.31;5104179;28;20447;-64
2022/03/15 03:10:09;;;;;;;27.60;18.07;;;;;;;5.25;81.83;101508.78;5104200;28;20450;-65
2022/03/15 03:12:40;;;;;;;28.93;19.13;;;;;;;5.18;81.78;101504.72;5103055;28;20451;-65
2022/03/15 03:15:12;;;;;;;27.33;17.53;;;;;;;5.22;81.68;101511.59;5104223;28;20444;-64
2022/03/15 03:17:41;;;;;;;27.17;17.73;;;;;;;5.33;81.20;101507.56;5104111;28;20490;-64
2022/03/15 03:20:09;;;;;;;27.33;17.83;;;;;;;5.37;80.80;101510.00;5103888;28;20435;-64
2022/03/15 03:22:36;;;;;;;25.10;16.40;;;;;;;5.44;80.22;101514.03;5103733;28;20520;-64
2022/03/15 03:25:04;;;;;;;30.30;18.97;;;;;;;5.35;80.12;101511.00;5104060;28;20450;-64
2022/03/15 03:27:30;;;;;;;27.50;18.33;;;;;;;5.28;80.40;101510.44;5086931;28;20500;-64
2022/03/15 03:29:59;;;;;;;23.43;17.60;;;;;;;5.32;80.55;101509.34;5103913;28;20897;-66
2022/03/15 03:32:26;;;;;;;26.27;17.30;;;;;;;5.36;80.34;101504.75;5088653;28;20439;-65
2022/03/15 03:34:52;;;;;;;27.20;17.63;;;;;;;5.38;80.34;101506.41;5104039;28;20478;-65
2022/03/15 03:37:19;;;;;;;24.00;17.10;;;;;;;5.41;79.87;101514.19;5087413;28;20836;-66
2022/03/15 03:39:46;;;;;;;25.57;18.07;;;;;;;5.36;79.85;101518.88;5103882;28;20447;-64
2022/03/15 03:42:13;;;;;;;27.20;17.40;;;;;;;5.38;79.50;101521.44;5102685;28;20851;-64
2022/03/15 03:44:42;;;;;;;26.70;17.90;;;;;;;5.32;79.39;101519.97;5103654;28;20500;-65
2022/03/15 03:47:11;;;;;;;23.83;15.97;;;;;;;5.21;79.43;101512.53;5103592;28;20456;-65
2022/03/15 03:49:38;;;;;;;23.53;16.90;;;;;;;5.02;80.27;101507.28;5102833;28;20507;-65
2022/03/15 03:52:06;;;;;;;27.03;16.40;;;;;;;4.94;80.66;101506.78;5085678;28;20641;-65
2022/03/15 03:54:33;;;;;;;22.30;15.30;;;;;;;4.89;80.80;101499.03;5101650;28;20447;-65
2022/03/15 03:57:00;;;;;;;29.90;19.30;;;;;;;4.87;81.29;101497.41;5102744;28;20988;-65
2022/03/15 03:59:27;;;;;;;37.20;18.33;;;;;;;5.05;81.43;101503.59;5102581;28;20479;-65
2022/03/15 04:01:54;;;;;;;27.50;17.83;;;;;;;5.14;81.26;101487.25;5103579;28;20461;-65
2022/03/15 04:04:32;;;;;;;27.30;16.43;;;;;;;5.14;81.12;101494.34;5103459;28;20490;-65
2022/03/15 04:07:02;;;;;;;25.47;17.10;;;;;;;5.17;80.96;101497.69;5103042;28;20450;-66
2022/03/15 04:09:28;;;;;;;26.43;17.50;;;;;;;5.19;80.73;101494.97;5102272;28;20488;-65
2022/03/15 04:11:55;;;;;;;29.40;18.10;;;;;;;5.18;80.63;101494.13;5102630;28;20941;-65
2022/03/15 04:14:22;;;;;;;28.53;19.83;;;;;;;5.15;81.01;101494.25;5103580;28;20462;-65
2022/03/15 04:16:49;;;;;;;29.27;19.30;;;;;;;5.12;81.55;101491.78;5102891;28;20526;-65
2022/03/15 04:19:15;;;;;;;27.40;18.63;;;;;;;5.12;81.51;101494.44;5102176;28;20538;-65
2022/03/15 04:21:43;;;;;;;27.67;18.60;;;;;;;5.19;81.34;101501.16;5103207;28;20438;-65
2022/03/15 04:24:10;;;;;;;25.43;16.40;;;;;;;5.20;80.99;101502.84;5102895;28;20550;-65
2022/03/15 04:26:37;;;;;;;27.73;17.70;;;;;;;5.18;80.78;101502.06;5102246;28;20946;-65
2022/03/15 04:29:03;;;;;;;30.77;17.67;;;;;;;5.17;80.73;101504.81;5102097;28;20462;-65
2022/03/15 04:31:30;;;;;;;26.73;17.20;;;;;;;5.21;80.59;101509.03;5102734;28;20443;-65
2022/03/15 04:33:57;;;;;;;26.37;17.37;;;;;;;5.17;80.34;101491.53;5101635;28;20431;-65
2022/03/15 04:36:23;;;;;;;28.33;17.50;;;;;;;5.10;80.92;101501.59;5102741;28;20509;-65
2022/03/15 04:38:51;;;;;;;26.93;17.73;;;;;;;5.05;81.20;101499.19;5101860;28;20455;-65
2022/03/15 04:41:18;;;;;;;27.60;18.10;;;;;;;5.08;81.51;101496.34;5101975;28;20478;-65
2022/03/15 04:43:45;;;;;;;26.60;17.77;;;;;;;5.13;81.13;101500.59;5102461;28;20531;-65
2022/03/15 04:46:12;;;;;;;28.70;17.00;;;;;;;5.13;81.16;101490.00;5102312;28;20455;-65
2022/03/15 04:48:38;;;;;;;28.93;17.20;;;;;;;5.12;80.96;101490.91;5100847;28;20533;-65
2022/03/15 04:51:05;;;;;;;25.73;16.90;;;;;;;5.09;81.09;101491.94;5102466;28;20448;-65
2022/03/15 04:53:32;;;;;;;25.30;16.97;;;;;;;5.06;81.26;101478.81;5102263;28;20571;-65
2022/03/15 04:56:00;;;;;;;30.07;17.70;;;;;;;5.00;81.54;101484.41;5102088;28;20478;-64
2022/03/15 04:58:26;;;;;;;24.87;17.00;;;;;;;5.03;81.31;101478.97;5101441;28;20452;-65
2022/03/15 05:00:53;;;;;;;27.93;17.53;;;;;;;5.14;80.93;101478.44;5102386;28;20507;-65
2022/03/15 05:03:20;;;;;;;25.20;18.00;;;;;;;5.14;80.72;101484.63;5101742;28;20479;-65
2022/03/15 05:05:48;;;;;;;24.70;17.67;;;;;;;5.09;80.36;101484.84;5102069;28;20496;-65
2022/03/15 05:08:14;;;;;;;27.03;16.37;;;;;;;5.07;80.58;101478.75;5101514;28;20455;-65
2022/03/15 05:13:28;;;;;;;28.13;16.30;;;;;;;5.03;80.47;101471.88;5102251;28;20441;-65
2022/03/15 05:15:55;;;;;;;26.27;17.90;;;;;;;5.08;80.50;101475.16;5100774;28;20451;-66
2022/03/15 05:18:23;;;;;;;25.50;16.50;;;;;;;5.06;80.39;101477.03;5094105;28;20455;-69
2022/03/15 05:20:49;;;;;;;25.63;17.37;;;;;;;5.15;80.26;101483.66;5097579;28;20448;-71
2022/03/15 05:23:16;;;;;;;25.10;16.57;;;;;;;5.03;80.37;101479.81;5094881;28;20486;-72
2022/03/15 05:25:43;;;;;;;26.67;18.43;;;;;;;5.02;80.41;101478.13;5104595;28;20913;-72
2022/03/15 05:28:09;;;;;;;26.60;17.90;;;;;;;5.09;80.55;101490.13;5100884;28;20455;-71
2022/03/15 05:30:38;;;;;;;27.13;17.10;;;;;;;5.17;80.38;101488.91;5099347;28;20451;-71
2022/03/15 05:33:04;;;;;;;24.50;17.93;;;;;;;5.21;80.18;101487.84;5106122;28;20862;-71
2022/03/15 05:35:31;;;;;;;26.57;17.17;;;;;;;5.24;79.75;101485.88;5103145;28;21002;-70
2022/03/15 05:37:58;;;;;;;26.40;17.60;;;;;;;5.14;80.00;101489.03;5099103;28;20454;-63
2022/03/15 05:40:25;;;;;;;23.63;17.50;;;;;;;5.04;80.41;101493.94;5100589;28;20502;-70
2022/03/15 05:42:52;;;;;;;23.20;17.03;;;;;;;5.01;80.52;101492.28;5100420;28;21364;-64
2022/03/15 05:45:18;;;;;;;23.50;15.77;;;;;;;5.12;80.23;101489.13;5099639;28;20443;-64
2022/03/15 05:47:56;;;;;;;27.43;17.70;;;;;;;5.21;79.80;101491.34;5100125;28;20451;-63
2022/03/15 05:50:23;;;;;;;29.87;17.50;;;;;;;5.31;79.14;101494.38;5080427;28;20432;-64
2022/03/15 05:52:50;;;;;;;24.27;15.67;;;;;;;5.33;78.59;101491.63;5094867;28;20480;-64
2022/03/15 05:55:17;;;;;;;22.63;16.23;;;;;;;5.24;78.82;101493.84;5100237;28;20480;-64
2022/03/15 05:57:43;;;;;;;23.83;16.17;;;;;;;5.16;79.10;101493.34;5100063;28;20460;-64
2022/03/15 06:00:11;;;;;;;24.43;16.00;;;;;;;5.17;79.43;101497.69;5099447;28;20439;-65
2022/03/15 06:02:38;;;;;;;22.57;15.47;;;;;;;5.27;79.19;101495.47;5100299;28;20468;-64
2022/03/15 06:05:08;;;;;;;28.83;16.57;;;;;;;4.95;79.93;101504.97;5100975;28;20526;-61
2022/03/15 06:07:34;;;;;;;24.87;15.40;;;;;;;4.92;80.55;101498.03;5099830;28;20484;-62
2022/03/15 06:10:01;;;;;;;26.03;16.70;;;;;;;5.08;80.24;101493.69;5099402;28;20519;-62
2022/03/15 06:12:28;;;;;;;23.67;16.50;;;;;;;5.31;79.71;101497.00;5099990;28;20459;-62
2022/03/15 06:14:54;;;;;;;25.17;16.17;;;;;;;5.41;79.40;101494.78;5100171;28;20469;-63
2022/03/15 06:17:21;;;;;;;25.33;17.40;;;;;;;5.47;79.39;101489.19;5101350;28;20733;-63
2022/03/15 06:19:48;;;;;;;31.70;19.63;;;;;;;5.45;79.34;101491.03;5087495;28;20459;-63
2022/03/15 06:22:16;;;;;;;27.07;16.70;;;;;;;5.55;79.31;101483.47;5100670;28;20435;-67
2022/03/15 06:24:42;;;;;;;26.50;15.97;;;;;;;5.41;79.37;101473.56;5099754;28;20486;-65
2022/03/15 06:27:09;;;;;;;23.20;17.03;;;;;;;5.50;79.41;101472.25;5099157;28;20464;-65
2022/03/15 06:29:36;;;;;;;28.63;17.60;;;;;;;5.58;79.34;101475.38;5100532;28;20516;-65
2022/03/15 06:32:03;;;;;;;30.70;18.10;;;;;;;5.60;79.22;101478.78;5100423;28;20993;-65
2022/03/15 06:34:30;;;;;;;25.73;17.10;;;;;;;5.75;79.26;101477.16;5098880;28;20532;-64
2022/03/15 06:36:58;;;;;;;27.40;18.50;;;;;;;5.87;78.85;101471.22;5098976;28;20450;-64
2022/03/15 06:39:26;;;;;;;27.67;18.30;;;;;;;5.89;78.57;101465.81;5100366;28;20465;-64
2022/03/15 06:41:53;;;;;;;27.33;17.77;;;;;;;5.98;78.42;101470.69;5098594;28;20941;-64
2022/03/15 06:44:20;;;;;;;25.57;17.80;;;;;;;6.05;78.08;101473.88;5101159;28;20534;-64
2022/03/15 06:46:47;;;;;;;28.87;16.90;;;;;;;6.00;77.95;101472.28;5100812;28;20469;-65
2022/03/15 06:49:13;;;;;;;31.23;18.33;;;;;;;6.14;77.87;101465.41;5099402;28;20463;-64
2022/03/15 06:51:40;;;;;;;30.23;17.83;;;;;;;6.20;77.69;101468.59;5100944;28;20450;-64
2022/03/15 06:54:07;;;;;;;26.00;17.60;;;;;;;6.38;77.35;101473.84;5100101;28;20446;-64
2022/03/15 06:56:37;;;;;;;24.50;17.87;;;;;;;6.47;76.76;101461.88;5099277;28;20450;-64
2022/03/15 06:59:04;;;;;;;25.73;16.83;;;;;;;6.50;76.30;101467.00;5100542;28;20451;-63
2022/03/15 07:01:31;;;;;;;22.10;16.50;;;;;;;6.46;76.38;101468.97;5101264;28;20435;-63
2022/03/15 07:03:57;;;;;;;28.83;18.00;;;;;;;6.52;76.49;101465.13;5103765;28;20473;-63
2022/03/15 07:06:24;;;;;;;24.23;16.93;;;;;;;6.55;76.48;101459.66;5103176;28;20493;-63
2022/03/15 07:09:02;;;;;;;23.47;17.07;;;;;;;6.27;76.73;101465.59;5104722;28;21552;-63
2022/03/15 07:11:28;;;;;;;25.20;17.90;;;;;;;6.21;77.04;101461.47;5096184;28;20451;-63
2022/03/15 07:13:57;;;;;;;30.57;18.13;;;;;;;6.22;77.37;101455.25;5096376;28;20439;-64
2022/03/15 07:16:23;;;;;;;27.13;18.20;;;;;;;6.21;77.36;101458.81;5099006;28;20447;-63
2022/03/15 07:18:50;;;;;;;26.80;18.27;;;;;;;6.39;77.20;101451.66;5098020;28;20509;-64
2022/03/15 07:21:17;;;;;;;28.00;17.90;;;;;;;6.38;76.72;101455.25;5102612;28;20469;-64
2022/03/15 07:23:44;;;;;;;27.87;18.13;;;;;;;6.63;76.74;101451.25;5102516;28;20523;-63
2022/03/15 07:26:10;;;;;;;27.40;19.77;;;;;;;6.65;76.10;101455.53;5101172;28;20493;-63
2022/03/15 07:28:37;;;;;;;25.83;17.27;;;;;;;6.79;75.82;101452.09;5101580;28;20458;-64
2022/03/15 07:31:06;;;;;;;23.70;17.27;;;;;;;6.92;75.33;101444.28;5102290;28;20435;-64
2022/03/15 07:33:33;;;;;;;28.40;17.30;;;;;;;6.65;75.98;101447.56;5101482;28;20439;-63
2022/03/15 07:36:00;;;;;;;28.03;17.50;;;;;;;6.76;76.09;101441.63;5102368;28;20447;-63
2022/03/15 07:38:27;;;;;;;24.80;16.57;;;;;;;6.87;75.69;101444.53;5102309;28;20459;-63
2022/03/15 07:40:54;;;;;;;23.33;16.47;;;;;;;6.92;75.75;101444.28;5101159;28;20536;-63
2022/03/15 07:43:23;;;;;;;27.00;17.80;;;;;;;7.10;74.91;101445.91;5102383;28;20435;-63
2022/03/15 07:45:50;;;;;;;25.83;17.17;;;;;;;7.19;74.31;101444.50;5101877;28;20891;-63
2022/03/15 07:48:18;;;;;;;25.73;16.80;;;;;;;7.15;74.23;101445.59;5100610;28;20908;-63
2022/03/15 07:50:45;;;;;;;30.47;16.40;;;;;;;7.08;74.42;101447.78;5111385;28;20438;-64
2022/03/15 07:53:11;;;;;;;25.40;17.00;;;;;;;7.02;74.99;101444.63;5122131;28;20442;-64
2022/03/15 07:55:38;;;;;;;25.37;16.37;;;;;;;7.16;75.05;101445.53;5111264;28;20498;-65
2022/03/15 07:58:05;;;;;;;26.20;16.33;;;;;;;6.96;75.53;101441.38;5101421;28;20519;-64
2022/03/15 08:00:32;;;;;;;25.17;17.30;;;;;;;7.10;75.03;101445.91;5101962;28;20435;-64
2022/03/15 08:02:58;;;;;;;23.40;16.67;;;;;;;7.04;75.31;101440.06;5100965;28;20505;-64
2022/03/15 08:05:28;;;;;;;24.50;16.43;;;;;;;7.06;74.86;101440.84;5101417;28;20582;-64
2022/03/15 08:07:56;;;;;;;23.17;16.30;;;;;;;7.35;74.97;101434.66;5101478;28;20450;-65
2022/03/15 08:10:23;;;;;;;24.87;16.90;;;;;;;7.60;74.11;101433.19;5088520;28;20455;-65
2022/03/15 08:12:49;;;;;;;25.50;16.83;;;;;;;7.18;73.85;101432.13;5099651;28;20455;-65
2022/03/15 08:15:17;;;;;;;25.97;17.43;;;;;;;7.33;74.33;101444.53;5101805;28;20464;-64
2022/03/15 08:17:45;;;;;;;23.43;16.97;;;;;;;7.58;73.67;101432.44;5100901;28;20423;-64
2022/03/15 08:20:15;;;;;;;27.50;16.43;;;;;;;7.27;73.85;101434.25;5098220;28;20569;-64
2022/03/15 08:22:43;;;;;;;22.57;17.30;;;;;;;7.82;73.22;101438.09;5101628;28;20427;-64
2022/03/15 08:25:10;;;;;;;25.47;16.50;;;;;;;7.71;72.65;101438.75;5101151;28;21173;-65
2022/03/15 08:27:37;;;;;;;25.23;17.33;;;;;;;7.98;72.02;101429.16;5100599;28;20455;-64
2022/03/15 08:30:05;;;;;;;26.10;16.73;;;;;;;8.13;71.64;101422.88;5100805;28;20943;-65
2022/03/15 08:32:32;;;;;;;20.60;15.13;;;;;;;8.28;71.32;101429.91;5101239;28;20447;-64
2022/03/15 08:34:59;;;;;;;26.27;16.40;;;;;;;8.35;70.89;101422.38;5105065;28;20465;-65
2022/03/15 08:37:25;;;;;;;27.23;16.13;;;;;;;8.13;71.42;101412.22;5110551;28;20428;-65
2022/03/15 08:39:54;;;;;;;21.13;14.50;;;;;;;8.03;71.48;101406.59;5101192;28;20518;-64
2022/03/15 08:42:21;;;;;;;22.07;15.90;;;;;;;8.32;71.16;101403.09;5099189;28;20493;-64
2022/03/15 08:44:48;;;;;;;19.97;15.23;;;;;;;8.13;71.10;101392.72;5101241;28;20482;-64
2022/03/15 08:47:15;;;;;;;23.43;14.40;;;;;;;7.99;71.35;101393.59;5101077;28;20446;-64
2022/03/15 08:49:43;;;;;;;21.67;15.03;;;;;;;8.21;71.37;101395.75;5099640;28;20520;-64
2022/03/15 08:52:10;;;;;;;22.50;15.30;;;;;;;8.54;70.58;101395.44;5101302;28;20438;-64
2022/03/15 08:54:37;;;;;;;18.93;14.33;;;;;;;8.61;70.71;101394.09;5100673;28;20453;-64
2022/03/15 08:57:05;;;;;;;24.67;14.63;;;;;;;8.45;70.53;101394.25;5099349;28;20451;-64
2022/03/15 08:59:32;;;;;;;18.23;14.10;;;;;;;8.50;70.48;101393.06;5100328;28;20451;-65
2022/03/15 09:02:00;;;;;;;18.73;12.63;;;;;;;8.74;70.12;101387.97;5100482;28;20445;-64
2022/03/15 09:04:27;;;;;;;24.13;15.10;;;;;;;9.10;69.06;101383.81;5099481;28;20611;-64
2022/03/15 09:06:54;;;;;;;25.73;15.17;;;;;;;9.02;68.45;101385.16;5100140;28;20435;-64
2022/03/15 09:09:24;;;;;;;22.27;13.70;;;;;;;9.11;68.71;101385.50;5092350;28;20467;-65
2022/03/15 09:11:51;;;;;;;23.90;14.40;;;;;;;9.64;67.83;101382.81;5078977;28;20487;-65
2022/03/15 09:14:19;;;;;;;19.23;14.80;;;;;;;9.77;66.83;101384.53;5080618;28;20424;-64
2022/03/15 09:16:46;;;;;;;20.07;13.80;;;;;;;10.05;66.35;101379.91;5079727;28;20448;-66
2022/03/15 09:19:13;;;;;;;17.37;12.10;;;;;;;10.11;66.01;101382.13;5085466;28;20967;-65
2022/03/15 09:21:40;;;;;;;20.43;13.63;;;;;;;10.15;65.67;101370.22;5100236;28;20488;-66
2022/03/15 09:24:06;;;;;;;18.03;14.23;;;;;;;10.07;65.98;101367.28;5099672;28;20501;-65
2022/03/15 09:26:34;;;;;;;20.00;14.30;;;;;;;10.08;65.96;101368.13;5098704;28;21016;-65
2022/03/15 09:29:01;;;;;;;18.90;14.77;;;;;;;9.96;66.67;101367.16;5100070;28;20461;-64
2022/03/15 09:31:29;;;;;;;16.67;12.73;;;;;;;10.27;65.22;101356.97;5099953;28;20454;-65
2022/03/15 09:33:56;;;;;;;17.43;13.10;;;;;;;10.21;66.45;101357.38;5099642;28;20454;-65
2022/03/15 09:36:23;;;;;;;18.47;14.80;;;;;;;9.75;66.45;101343.69;5099949;28;20438;-64
2022/03/15 09:38:50;;;;;;;19.70;12.87;;;;;;;9.94;66.78;101351.25;5099738;28;20455;-65
2022/03/15 09:41:17;;;;;;;14.80;12.03;;;;;;;10.16;65.82;101350.56;5098270;28;21943;-65
2022/03/15 09:43:45;;;;;;;16.83;12.83;;;;;;;9.90;66.64;101348.94;5097118;28;20793;-65
2022/03/15 09:46:15;;;;;;;17.77;13.20;;;;;;;9.74;67.85;101349.16;5079754;28;20439;-65
2022/03/15 09:48:44;;;;;;;17.40;12.10;;;;;;;10.22;66.65;101346.59;5078806;28;20444;-64
2022/03/15 09:51:14;;;;;;;18.00;13.20;;;;;;;10.58;65.48;101341.38;5083983;28;20470;-65
2022/03/15 09:53:41;;;;;;;17.73;12.57;;;;;;;9.94;67.16;101343.22;5099465;28;20461;-65
2022/03/15 09:56:08;;;;;;;16.40;11.50;;;;;;;9.82;66.33;101340.59;5098741;28;20477;-64
2022/03/15 09:58:35;;;;;;;15.13;11.80;;;;;;;9.55;68.34;101346.94;5099663;28;20447;-64
2022/03/15 10:01:01;;;;;;;14.00;11.60;;;;;;;10.41;66.85;101339.94;5099712;28;20914;-64
2022/03/15 10:03:29;;;;;;;20.87;12.77;;;;;;;10.77;64.56;101341.72;5098567;28;20447;-64
2022/03/15 10:05:57;;;;;;;16.17;10.97;;;;;;;10.79;64.38;101329.06;5100185;28;20474;-64
2022/03/15 10:08:25;;;;;;;16.07;12.60;;;;;;;10.93;63.97;101326.19;5099540;28;20525;-64
2022/03/15 10:10:53;;;;;;;14.30;11.40;;;;;;;11.06;64.05;101322.59;5098051;28;20423;-65
2022/03/15 10:13:20;;;;;;;14.83;11.40;;;;;;;10.77;64.36;101322.13;5099457;28;20473;-64
2022/03/15 10:15:54;;;;;;;15.00;11.40;;;;;;;10.81;64.89;101319.09;5099872;28;20427;-64
2022/03/15 10:18:21;;;;;;;12.97;10.67;;;;;;;10.58;66.13;101322.66;5095932;28;20447;-64
2022/03/15 10:20:49;;;;;;;14.03;11.43;;;;;;;10.58;66.07;101307.47;5079160;28;20428;-64
2022/03/15 10:23:19;;;;;;;15.30;11.67;;;;;;;10.66;65.49;101307.75;5078804;28;20702;-64
2022/03/15 10:25:49;;;;;;;16.47;11.50;;;;;;;10.99;64.57;101306.16;5078358;28;20471;-64
2022/03/15 10:28:16;;;;;;;17.60;11.00;;;;;;;11.17;63.82;101308.41;5078706;28;20456;-64
2022/03/15 10:30:44;;;;;;;13.17;10.40;;;;;;;11.32;63.53;101304.53;5078947;28;20433;-65
2022/03/15 10:33:11;;;;;;;12.43;9.53;;;;;;;11.58;63.04;101301.59;5078000;28;20950;-65
2022/03/15 10:35:39;;;;;;;15.83;10.80;;;;;;;11.46;63.17;101301.63;5080356;28;20426;-65
2022/03/15 10:38:07;;;;;;;15.57;10.90;;;;;;;11.61;63.48;101302.25;5082468;28;20455;-65
2022/03/15 10:40:37;;;;;;;12.83;10.03;;;;;;;11.47;62.92;101294.44;5092762;28;20455;-64
2022/03/15 10:43:07;;;;;;;15.67;10.97;;;;;;;11.37;62.98;101286.28;5102516;28;21226;-64
2022/03/15 10:45:36;;;;;;;15.60;10.53;;;;;;;11.46;63.11;101279.34;5103045;28;20542;-65
2022/03/15 10:48:12;;;;;;;17.30;10.70;;;;;;;11.63;62.83;101278.00;5102483;28;20447;-64
2022/03/15 10:50:50;;;;;;;13.27;9.80;;;;;;;11.96;62.22;101273.59;5103511;28;20450;-65
2022/03/15 10:53:17;;;;;;;12.70;10.80;;;;;;;12.09;62.02;101277.00;5103043;28;20445;-64
2022/03/15 10:55:46;;;;;;;13.93;10.00;;;;;;;12.11;61.17;101269.69;5101643;28;20446;-65
2022/03/15 10:58:15;;;;;;;18.10;9.87;;;;;;;12.03;61.42;101277.50;5102084;28;20800;-65
2022/03/15 11:00:43;;;;;;;16.67;11.30;;;;;;;12.09;61.34;101270.81;5102532;28;20435;-65
2022/03/15 11:03:15;;;;;;;12.63;9.63;;;;;;;12.02;61.65;101270.44;5101027;28;20460;-65
2022/03/15 11:05:43;;;;;;;13.33;10.07;;;;;;;11.69;62.26;101261.44;5102591;28;20501;-65
2022/03/15 11:08:11;;;;;;;15.90;10.13;;;;;;;11.74;62.55;101258.41;5101925;28;20553;-65
2022/03/15 11:10:39;;;;;;;15.50;10.80;;;;;;;11.81;62.40;101256.94;5083206;28;20479;-66
2022/03/15 11:13:11;;;;;;;13.33;9.87;;;;;;;11.75;62.21;101252.94;5081585;28;20483;-65
2022/03/15 11:15:45;;;;;;;11.13;9.33;;;;;;;12.05;62.18;101254.97;5082592;28;20620;-66
2022/03/15 11:18:13;;;;;;;13.57;9.57;;;;;;;12.10;61.48;101243.88;5081130;28;20439;-65
2022/03/15 11:20:42;;;;;;;14.33;9.83;;;;;;;12.23;61.75;101251.75;5081498;28;20436;-66